sensor_id;sensor_type;location;lat;lon;timestamp;P1;durP1;ratioP1;P2;durP2;ratioP2
10839;SDS011;5473;42.706;23.328;2022-10-04T00:01:52;0.40;;;0.40;;
10839;SDS011;5473;42.706;23.328;2022-10-04T00:04:24;0.30;;;0.30;;
10839;SDS011;5473;42.706;23.328;2022-10-04T00:06:54;0.30;;;0.30;;
10839;SDS011;5473;42.706;23.328;2022-10-04T00:09:27;0.30;;;0.30;;
10839;SDS011;5473;42.706;23.328;2022-10-04T00:12:00;0.50;;;0.50;;
10839;SDS011;5473;42.706;23.328;2022-10-04T00:14:32;0.40;;;0.40;;
10839;SDS011;5473;42.706;23.328;2022-10-04T00:17:06;0.40;;;0.40;;
10839;SDS011;5473;42.706;23.328;2022-10-04T00:19:36;0.40;;;0.40;;
10839;SDS011;5473;42.706;23.328;2022-10-04T00:22:13;0.30;;;0.30;;
10839;SDS011;5473;42.706;23.328;2022-10-04T00:31:12;0.30;;;0.30;;
10839;SDS011;5473;42.706;23.328;2022-10-04T00:33:44;0.50;;;0.50;;
10839;SDS011;5473;42.706;23.328;2022-10-04T00:39:15;0.40;;;0.40;;
10839;SDS011;5473;42.706;23.328;2022-10-04T00:41:55;0.40;;;0.40;;
10839;SDS011;5473;42.706;23.328;2022-10-04T00:44:29;0.40;;;0.40;;
10839;SDS011;5473;42.706;23.328;2022-10-04T00:47:11;0.30;;;0.30;;
10839;SDS011;5473;42.706;23.328;2022-10-04T00:49:44;0.40;;;0.40;;
10839;SDS011;5473;42.706;23.328;2022-10-04T00:52:17;0.40;;;0.40;;
10839;SDS011;5473;42.706;23.328;2022-10-04T00:54:48;0.40;;;0.40;;
10839;SDS011;5473;42.706;23.328;2022-10-04T00:57:19;0.50;;;0.50;;
10839;SDS011;5473;42.706;23.328;2022-10-04T00:59:50;0.40;;;0.40;;
10839;SDS011;5473;42.706;23.328;2022-10-04T01:02:20;0.40;;;0.40;;
10839;SDS011;5473;42.706;23.328;2022-10-04T01:04:51;0.53;;;0.53;;
10839;SDS011;5473;42.706;23.328;2022-10-04T01:07:22;0.40;;;0.40;;
10839;SDS011;5473;42.706;23.328;2022-10-04T01:09:55;0.50;;;0.50;;
10839;SDS011;5473;42.706;23.328;2022-10-04T01:12:30;0.40;;;0.40;;
10839;SDS011;5473;42.706;23.328;2022-10-04T01:15:09;0.50;;;0.50;;
10839;SDS011;5473;42.706;23.328;2022-10-04T01:17:39;0.50;;;0.50;;
10839;SDS011;5473;42.706;23.328;2022-10-04T01:20:23;0.50;;;0.50;;
10839;SDS011;5473;42.706;23.328;2022-10-04T01:22:56;0.37;;;0.37;;
10839;SDS011;5473;42.706;23.328;2022-10-04T01:25:45;0.40;;;0.40;;
10839;SDS011;5473;42.706;23.328;2022-10-04T01:28:13;0.50;;;0.50;;
10839;SDS011;5473;42.706;23.328;2022-10-04T01:30:40;0.50;;;0.50;;
10839;SDS011;5473;42.706;23.328;2022-10-04T01:33:08;0.40;;;0.40;;
10839;SDS011;5473;42.706;23.328;2022-10-04T01:35:37;0.40;;;0.40;;
10839;SDS011;5473;42.706;23.328;2022-10-04T01:38:05;0.40;;;0.40;;
10839;SDS011;5473;42.706;23.328;2022-10-04T01:40:33;0.50;;;0.50;;
10839;SDS011;5473;42.706;23.328;2022-10-04T01:43:03;0.30;;;0.30;;
10839;SDS011;5473;42.706;23.328;2022-10-04T01:45:34;0.50;;;0.50;;
10839;SDS011;5473;42.706;23.328;2022-10-04T01:48:06;0.50;;;0.50;;
10839;SDS011;5473;42.706;23.328;2022-10-04T01:50:36;0.47;;;0.47;;
10839;SDS011;5473;42.706;23.328;2022-10-04T01:53:12;0.40;;;0.40;;
10839;SDS011;5473;42.706;23.328;2022-10-04T01:55:43;0.50;;;0.50;;
10839;SDS011;5473;42.706;23.328;2022-10-04T01:58:16;0.50;;;0.50;;
10839;SDS011;5473;42.706;23.328;2022-10-04T02:00:47;0.50;;;0.50;;
10839;SDS011;5473;42.706;23.328;2022-10-04T02:03:19;0.43;;;0.43;;
10839;SDS011;5473;42.706;23.328;2022-10-04T02:05:53;0.50;;;0.50;;
10839;SDS011;5473;42.706;23.328;2022-10-04T02:08:26;0.40;;;0.40;;
10839;SDS011;5473;42.706;23.328;2022-10-04T02:10:56;0.50;;;0.50;;
10839;SDS011;5473;42.706;23.328;2022-10-04T02:13:25;0.40;;;0.40;;
10839;SDS011;5473;42.706;23.328;2022-10-04T02:15:54;0.60;;;0.60;;
10839;SDS011;5473;42.706;23.328;2022-10-04T02:18:22;0.40;;;0.40;;
10839;SDS011;5473;42.706;23.328;2022-10-04T02:20:51;0.50;;;0.50;;
10839;SDS011;5473;42.706;23.328;2022-10-04T02:23:19;0.50;;;0.50;;
10839;SDS011;5473;42.706;23.328;2022-10-04T02:25:49;0.50;;;0.50;;
10839;SDS011;5473;42.706;23.328;2022-10-04T02:28:16;0.50;;;0.50;;
10839;SDS011;5473;42.706;23.328;2022-10-04T02:30:43;0.50;;;0.50;;
10839;SDS011;5473;42.706;23.328;2022-10-04T02:33:37;0.50;;;0.50;;
10839;SDS011;5473;42.706;23.328;2022-10-04T02:36:05;0.50;;;0.50;;
10839;SDS011;5473;42.706;23.328;2022-10-04T02:38:34;0.40;;;0.40;;
10839;SDS011;5473;42.706;23.328;2022-10-04T02:41:07;0.40;;;0.40;;
10839;SDS011;5473;42.706;23.328;2022-10-04T02:43:46;0.40;;;0.40;;
10839;SDS011;5473;42.706;23.328;2022-10-04T02:46:16;0.50;;;0.50;;
10839;SDS011;5473;42.706;23.328;2022-10-04T02:48:52;0.43;;;0.43;;
10839;SDS011;5473;42.706;23.328;2022-10-04T02:51:24;0.40;;;0.40;;
10839;SDS011;5473;42.706;23.328;2022-10-04T02:53:59;0.40;;;0.40;;
10839;SDS011;5473;42.706;23.328;2022-10-04T02:56:31;0.40;;;0.40;;
10839;SDS011;5473;42.706;23.328;2022-10-04T02:59:02;0.50;;;0.50;;
10839;SDS011;5473;42.706;23.328;2022-10-04T03:01:41;0.40;;;0.40;;
10839;SDS011;5473;42.706;23.328;2022-10-04T03:04:16;0.40;;;0.40;;
10839;SDS011;5473;42.706;23.328;2022-10-04T03:06:47;0.50;;;0.50;;
10839;SDS011;5473;42.706;23.328;2022-10-04T03:09:15;0.50;;;0.50;;
10839;SDS011;5473;42.706;23.328;2022-10-04T03:11:47;0.50;;;0.50;;
10839;SDS011;5473;42.706;23.328;2022-10-04T03:14:17;0.40;;;0.40;;
10839;SDS011;5473;42.706;23.328;2022-10-04T03:16:46;0.50;;;0.50;;
10839;SDS011;5473;42.706;23.328;2022-10-04T03:19:15;0.40;;;0.40;;
10839;SDS011;5473;42.706;23.328;2022-10-04T03:21:44;0.50;;;0.50;;
10839;SDS011;5473;42.706;23.328;2022-10-04T03:24:15;0.50;;;0.50;;
10839;SDS011;5473;42.706;23.328;2022-10-04T03:26:44;0.50;;;0.50;;
10839;SDS011;5473;42.706;23.328;2022-10-04T03:29:15;0.40;;;0.40;;
10839;SDS011;5473;42.706;23.328;2022-10-04T03:31:45;0.43;;;0.43;;
10839;SDS011;5473;42.706;23.328;2022-10-04T03:34:19;0.50;;;0.50;;
10839;SDS011;5473;42.706;23.328;2022-10-04T03:36:48;0.40;;;0.40;;
10839;SDS011;5473;42.706;23.328;2022-10-04T03:39:18;0.40;;;0.40;;
10839;SDS011;5473;42.706;23.328;2022-10-04T03:41:53;0.50;;;0.50;;
10839;SDS011;5473;42.706;23.328;2022-10-04T03:44:23;0.50;;;0.50;;
10839;SDS011;5473;42.706;23.328;2022-10-04T03:46:50;0.40;;;0.40;;
10839;SDS011;5473;42.706;23.328;2022-10-04T03:49:22;0.40;;;0.40;;
10839;SDS011;5473;42.706;23.328;2022-10-04T03:51:55;0.50;;;0.50;;
10839;SDS011;5473;42.706;23.328;2022-10-04T03:54:24;0.53;;;0.53;;
10839;SDS011;5473;42.706;23.328;2022-10-04T03:56:54;0.40;;;0.40;;
10839;SDS011;5473;42.706;23.328;2022-10-04T03:59:22;0.50;;;0.50;;
10839;SDS011;5473;42.706;23.328;2022-10-04T04:02:01;0.43;;;0.43;;
10839;SDS011;5473;42.706;23.328;2022-10-04T04:04:35;0.50;;;0.50;;
10839;SDS011;5473;42.706;23.328;2022-10-04T04:07:11;0.50;;;0.50;;
10839;SDS011;5473;42.706;23.328;2022-10-04T04:09:43;0.40;;;0.40;;
10839;SDS011;5473;42.706;23.328;2022-10-04T04:12:15;0.50;;;0.50;;
10839;SDS011;5473;42.706;23.328;2022-10-04T04:14:47;0.50;;;0.50;;
10839;SDS011;5473;42.706;23.328;2022-10-04T04:17:17;0.50;;;0.50;;
10839;SDS011;5473;42.706;23.328;2022-10-04T04:20:01;0.40;;;0.40;;
10839;SDS011;5473;42.706;23.328;2022-10-04T04:22:31;0.40;;;0.40;;
10839;SDS011;5473;42.706;23.328;2022-10-04T04:24:59;0.50;;;0.50;;
10839;SDS011;5473;42.706;23.328;2022-10-04T04:27:30;0.50;;;0.50;;
10839;SDS011;5473;42.706;23.328;2022-10-04T04:30:02;0.50;;;0.50;;
10839;SDS011;5473;42.706;23.328;2022-10-04T04:32:32;0.40;;;0.40;;
10839;SDS011;5473;42.706;23.328;2022-10-04T04:35:04;0.40;;;0.40;;
10839;SDS011;5473;42.706;23.328;2022-10-04T04:37:34;0.40;;;0.40;;
10839;SDS011;5473;42.706;23.328;2022-10-04T04:40:17;0.50;;;0.50;;
10839;SDS011;5473;42.706;23.328;2022-10-04T04:42:47;0.60;;;0.60;;
10839;SDS011;5473;42.706;23.328;2022-10-04T04:45:15;0.50;;;0.50;;
10839;SDS011;5473;42.706;23.328;2022-10-04T04:47:47;0.43;;;0.43;;
10839;SDS011;5473;42.706;23.328;2022-10-04T04:50:16;0.50;;;0.50;;
10839;SDS011;5473;42.706;23.328;2022-10-04T04:52:45;0.50;;;0.50;;
10839;SDS011;5473;42.706;23.328;2022-10-04T04:55:16;0.50;;;0.50;;
10839;SDS011;5473;42.706;23.328;2022-10-04T04:57:46;0.50;;;0.50;;
10839;SDS011;5473;42.706;23.328;2022-10-04T05:00:16;0.47;;;0.47;;
10839;SDS011;5473;42.706;23.328;2022-10-04T05:02:51;0.50;;;0.50;;
10839;SDS011;5473;42.706;23.328;2022-10-04T05:05:23;0.50;;;0.50;;
10839;SDS011;5473;42.706;23.328;2022-10-04T05:08:02;0.50;;;0.50;;
10839;SDS011;5473;42.706;23.328;2022-10-04T05:10:42;0.50;;;0.50;;
10839;SDS011;5473;42.706;23.328;2022-10-04T05:13:13;0.43;;;0.43;;
10839;SDS011;5473;42.706;23.328;2022-10-04T05:15:42;0.40;;;0.40;;
10839;SDS011;5473;42.706;23.328;2022-10-04T05:18:13;0.20;;;0.20;;
10839;SDS011;5473;42.706;23.328;2022-10-04T05:20:52;0.30;;;0.30;;
10839;SDS011;5473;42.706;23.328;2022-10-04T05:23:20;0.40;;;0.40;;
10839;SDS011;5473;42.706;23.328;2022-10-04T05:25:47;0.30;;;0.30;;
10839;SDS011;5473;42.706;23.328;2022-10-04T05:28:17;0.37;;;0.37;;
10839;SDS011;5473;42.706;23.328;2022-10-04T05:30:49;0.40;;;0.40;;
10839;SDS011;5473;42.706;23.328;2022-10-04T05:33:35;0.33;;;0.33;;
10839;SDS011;5473;42.706;23.328;2022-10-04T05:39:24;0.30;;;0.30;;
10839;SDS011;5473;42.706;23.328;2022-10-04T05:41:55;0.30;;;0.30;;
10839;SDS011;5473;42.706;23.328;2022-10-04T05:44:28;0.30;;;0.30;;
10839;SDS011;5473;42.706;23.328;2022-10-04T05:46:59;0.20;;;0.20;;
10839;SDS011;5473;42.706;23.328;2022-10-04T05:49:29;0.20;;;0.20;;
10839;SDS011;5473;42.706;23.328;2022-10-04T05:52:01;0.23;;;0.23;;
10839;SDS011;5473;42.706;23.328;2022-10-04T05:54:38;0.20;;;0.20;;
10839;SDS011;5473;42.706;23.328;2022-10-04T05:57:15;0.20;;;0.20;;
10839;SDS011;5473;42.706;23.328;2022-10-04T06:00:00;0.20;;;0.20;;
10839;SDS011;5473;42.706;23.328;2022-10-04T06:02:42;0.20;;;0.20;;
10839;SDS011;5473;42.706;23.328;2022-10-04T06:05:27;0.20;;;0.20;;
10839;SDS011;5473;42.706;23.328;2022-10-04T06:08:08;0.20;;;0.20;;
10839;SDS011;5473;42.706;23.328;2022-10-04T06:10:50;0.20;;;0.20;;
10839;SDS011;5473;42.706;23.328;2022-10-04T06:13:29;0.20;;;0.20;;
10839;SDS011;5473;42.706;23.328;2022-10-04T06:16:18;0.20;;;0.20;;
10839;SDS011;5473;42.706;23.328;2022-10-04T06:19:03;0.20;;;0.20;;
10839;SDS011;5473;42.706;23.328;2022-10-04T06:21:46;0.20;;;0.20;;
10839;SDS011;5473;42.706;23.328;2022-10-04T06:24:32;0.20;;;0.20;;
10839;SDS011;5473;42.706;23.328;2022-10-04T06:27:02;0.13;;;0.13;;
10839;SDS011;5473;42.706;23.328;2022-10-04T06:29:36;0.20;;;0.20;;
10839;SDS011;5473;42.706;23.328;2022-10-04T06:32:27;0.10;;;0.10;;
10839;SDS011;5473;42.706;23.328;2022-10-04T06:38:04;0.10;;;0.10;;
10839;SDS011;5473;42.706;23.328;2022-10-04T06:40:51;0.10;;;0.10;;
10839;SDS011;5473;42.706;23.328;2022-10-04T06:46:22;0.10;;;0.10;;
10839;SDS011;5473;42.706;23.328;2022-10-04T06:49:06;0.10;;;0.10;;
10839;SDS011;5473;42.706;23.328;2022-10-04T06:51:57;0.20;;;0.20;;
10839;SDS011;5473;42.706;23.328;2022-10-04T06:54:47;0.10;;;0.10;;
10839;SDS011;5473;42.706;23.328;2022-10-04T06:57:42;0.10;;;0.10;;
10839;SDS011;5473;42.706;23.328;2022-10-04T07:00:24;0.10;;;0.10;;
10839;SDS011;5473;42.706;23.328;2022-10-04T07:02:54;0.10;;;0.10;;
10839;SDS011;5473;42.706;23.328;2022-10-04T07:05:29;0.10;;;0.10;;
10839;SDS011;5473;42.706;23.328;2022-10-04T07:08:03;0.10;;;0.10;;
10839;SDS011;5473;42.706;23.328;2022-10-04T07:10:38;0.10;;;0.10;;
10839;SDS011;5473;42.706;23.328;2022-10-04T07:13:12;0.20;;;0.20;;
10839;SDS011;5473;42.706;23.328;2022-10-04T07:15:59;0.10;;;0.10;;
10839;SDS011;5473;42.706;23.328;2022-10-04T07:18:32;0.10;;;0.10;;
10839;SDS011;5473;42.706;23.328;2022-10-04T07:21:07;0.20;;;0.20;;
10839;SDS011;5473;42.706;23.328;2022-10-04T07:23:37;0.10;;;0.10;;
10839;SDS011;5473;42.706;23.328;2022-10-04T07:26:15;0.20;;;0.20;;
10839;SDS011;5473;42.706;23.328;2022-10-04T07:28:47;0.30;;;0.30;;
10839;SDS011;5473;42.706;23.328;2022-10-04T07:31:33;0.30;;;0.30;;
10839;SDS011;5473;42.706;23.328;2022-10-04T07:34:02;0.20;;;0.20;;
10839;SDS011;5473;42.706;23.328;2022-10-04T07:36:38;0.40;;;0.40;;
10839;SDS011;5473;42.706;23.328;2022-10-04T07:39:11;0.30;;;0.30;;
10839;SDS011;5473;42.706;23.328;2022-10-04T07:41:45;0.30;;;0.30;;
10839;SDS011;5473;42.706;23.328;2022-10-04T07:44:17;0.30;;;0.30;;
10839;SDS011;5473;42.706;23.328;2022-10-04T07:46:52;0.30;;;0.30;;
10839;SDS011;5473;42.706;23.328;2022-10-04T07:49:21;0.30;;;0.30;;
10839;SDS011;5473;42.706;23.328;2022-10-04T07:51:56;0.30;;;0.30;;
10839;SDS011;5473;42.706;23.328;2022-10-04T07:54:33;0.30;;;0.30;;
10839;SDS011;5473;42.706;23.328;2022-10-04T07:57:06;0.30;;;0.30;;
10839;SDS011;5473;42.706;23.328;2022-10-04T07:59:41;0.30;;;0.30;;
10839;SDS011;5473;42.706;23.328;2022-10-04T08:02:17;0.30;;;0.30;;
10839;SDS011;5473;42.706;23.328;2022-10-04T08:04:52;0.30;;;0.30;;
10839;SDS011;5473;42.706;23.328;2022-10-04T08:07:34;0.30;;;0.30;;
10839;SDS011;5473;42.706;23.328;2022-10-04T08:10:15;0.40;;;0.40;;
10839;SDS011;5473;42.706;23.328;2022-10-04T08:12:51;0.30;;;0.30;;
10839;SDS011;5473;42.706;23.328;2022-10-04T08:15:31;0.20;;;0.20;;
10839;SDS011;5473;42.706;23.328;2022-10-04T08:18:04;0.30;;;0.30;;
10839;SDS011;5473;42.706;23.328;2022-10-04T08:20:56;0.30;;;0.30;;
10839;SDS011;5473;42.706;23.328;2022-10-04T08:23:32;0.30;;;0.30;;
10839;SDS011;5473;42.706;23.328;2022-10-04T08:26:27;0.40;;;0.40;;
10839;SDS011;5473;42.706;23.328;2022-10-04T08:29:15;0.30;;;0.30;;
10839;SDS011;5473;42.706;23.328;2022-10-04T08:32:13;0.20;;;0.20;;
10839;SDS011;5473;42.706;23.328;2022-10-04T08:44:14;0.30;;;0.30;;
10839;SDS011;5473;42.706;23.328;2022-10-04T08:47:19;0.23;;;0.23;;
10839;SDS011;5473;42.706;23.328;2022-10-04T08:50:22;0.20;;;0.20;;
10839;SDS011;5473;42.706;23.328;2022-10-04T08:56:12;0.20;;;0.20;;
10839;SDS011;5473;42.706;23.328;2022-10-04T08:58:51;0.17;;;0.17;;
10839;SDS011;5473;42.706;23.328;2022-10-04T09:04:50;0.10;;;0.10;;
10839;SDS011;5473;42.706;23.328;2022-10-04T09:07:47;0.10;;;0.10;;
10839;SDS011;5473;42.706;23.328;2022-10-04T09:10:38;0.20;;;0.20;;
10839;SDS011;5473;42.706;23.328;2022-10-04T09:16:14;0.10;;;0.10;;
10839;SDS011;5473;42.706;23.328;2022-10-04T09:18:52;0.10;;;0.10;;
10839;SDS011;5473;42.706;23.328;2022-10-04T09:21:42;0.10;;;0.10;;
10839;SDS011;5473;42.706;23.328;2022-10-04T09:24:30;0.10;;;0.10;;
10839;SDS011;5473;42.706;23.328;2022-10-04T09:27:17;0.10;;;0.10;;
10839;SDS011;5473;42.706;23.328;2022-10-04T09:29:56;0.10;;;0.10;;
10839;SDS011;5473;42.706;23.328;2022-10-04T09:32:48;0.10;;;0.10;;
10839;SDS011;5473;42.706;23.328;2022-10-04T09:35:52;0.10;;;0.10;;
10839;SDS011;5473;42.706;23.328;2022-10-04T09:38:37;0.10;;;0.10;;
10839;SDS011;5473;42.706;23.328;2022-10-04T09:41:30;0.00;;;0.00;;
10839;SDS011;5473;42.706;23.328;2022-10-04T09:59:30;0.10;;;0.10;;
10839;SDS011;5473;42.706;23.328;2022-10-04T10:02:28;0.10;;;0.10;;
10839;SDS011;5473;42.706;23.328;2022-10-04T10:05:32;0.00;;;0.00;;
10839;SDS011;5473;42.706;23.328;2022-10-04T10:08:20;0.10;;;0.10;;
10839;SDS011;5473;42.706;23.328;2022-10-04T10:10:55;0.10;;;0.10;;
10839;SDS011;5473;42.706;23.328;2022-10-04T10:14:00;0.10;;;0.10;;
10839;SDS011;5473;42.706;23.328;2022-10-04T10:17:00;0.10;;;0.10;;
10839;SDS011;5473;42.706;23.328;2022-10-04T10:19:46;0.10;;;0.10;;
10839;SDS011;5473;42.706;23.328;2022-10-04T10:22:29;0.10;;;0.10;;
10839;SDS011;5473;42.706;23.328;2022-10-04T10:25:26;0.10;;;0.10;;
10839;SDS011;5473;42.706;23.328;2022-10-04T10:28:07;0.10;;;0.10;;
10839;SDS011;5473;42.706;23.328;2022-10-04T10:30:47;0.10;;;0.10;;
10839;SDS011;5473;42.706;23.328;2022-10-04T10:33:34;0.10;;;0.10;;
10839;SDS011;5473;42.706;23.328;2022-10-04T10:36:23;0.10;;;0.10;;
10839;SDS011;5473;42.706;23.328;2022-10-04T10:39:08;0.10;;;0.10;;
10839;SDS011;5473;42.706;23.328;2022-10-04T10:42:05;0.10;;;0.10;;
10839;SDS011;5473;42.706;23.328;2022-10-04T10:44:56;0.10;;;0.10;;
10839;SDS011;5473;42.706;23.328;2022-10-04T10:47:37;0.10;;;0.10;;
10839;SDS011;5473;42.706;23.328;2022-10-04T10:50:25;0.10;;;0.10;;
10839;SDS011;5473;42.706;23.328;2022-10-04T10:56:42;0.20;;;0.20;;
10839;SDS011;5473;42.706;23.328;2022-10-04T11:02:38;0.20;;;0.20;;
10839;SDS011;5473;42.706;23.328;2022-10-04T11:08:35;0.20;;;0.20;;
10839;SDS011;5473;42.706;23.328;2022-10-04T11:11:28;0.20;;;0.20;;
10839;SDS011;5473;42.706;23.328;2022-10-04T11:14:28;0.20;;;0.20;;
10839;SDS011;5473;42.706;23.328;2022-10-04T11:20:37;0.20;;;0.20;;
10839;SDS011;5473;42.706;23.328;2022-10-04T11:26:43;0.10;;;0.10;;
10839;SDS011;5473;42.706;23.328;2022-10-04T11:29:27;0.10;;;0.10;;
10839;SDS011;5473;42.706;23.328;2022-10-04T11:32:15;0.10;;;0.10;;
10839;SDS011;5473;42.706;23.328;2022-10-04T11:35:23;0.10;;;0.10;;
10839;SDS011;5473;42.706;23.328;2022-10-04T11:38:12;0.10;;;0.10;;
10839;SDS011;5473;42.706;23.328;2022-10-04T11:46:42;0.10;;;0.10;;
10839;SDS011;5473;42.706;23.328;2022-10-04T11:49:23;0.10;;;0.10;;
10839;SDS011;5473;42.706;23.328;2022-10-04T11:52:22;0.10;;;0.10;;
10839;SDS011;5473;42.706;23.328;2022-10-04T11:55:15;0.10;;;0.10;;
10839;SDS011;5473;42.706;23.328;2022-10-04T11:58:07;0.10;;;0.10;;
10839;SDS011;5473;42.706;23.328;2022-10-04T12:00:48;0.10;;;0.10;;
10839;SDS011;5473;42.706;23.328;2022-10-04T12:03:40;0.13;;;0.13;;
10839;SDS011;5473;42.706;23.328;2022-10-04T12:06:37;0.10;;;0.10;;
10839;SDS011;5473;42.706;23.328;2022-10-04T12:09:20;0.10;;;0.10;;
10839;SDS011;5473;42.706;23.328;2022-10-04T12:15:11;0.10;;;0.10;;
10839;SDS011;5473;42.706;23.328;2022-10-04T12:18:02;0.10;;;0.10;;
10839;SDS011;5473;42.706;23.328;2022-10-04T12:24:13;0.10;;;0.10;;
10839;SDS011;5473;42.706;23.328;2022-10-04T12:27:09;0.20;;;0.20;;
10839;SDS011;5473;42.706;23.328;2022-10-04T12:30:13;0.20;;;0.20;;
10839;SDS011;5473;42.706;23.328;2022-10-04T12:32:58;0.10;;;0.10;;
10839;SDS011;5473;42.706;23.328;2022-10-04T12:35:39;0.10;;;0.10;;
10839;SDS011;5473;42.706;23.328;2022-10-04T12:41:40;0.10;;;0.10;;
10839;SDS011;5473;42.706;23.328;2022-10-04T12:44:19;0.10;;;0.10;;
10839;SDS011;5473;42.706;23.328;2022-10-04T12:46:56;0.10;;;0.10;;
10839;SDS011;5473;42.706;23.328;2022-10-04T12:49:35;0.10;;;0.10;;
10839;SDS011;5473;42.706;23.328;2022-10-04T12:52:14;0.10;;;0.10;;
10839;SDS011;5473;42.706;23.328;2022-10-04T12:54:44;0.10;;;0.10;;
10839;SDS011;5473;42.706;23.328;2022-10-04T13:00:14;0.10;;;0.10;;
10839;SDS011;5473;42.706;23.328;2022-10-04T13:05:48;0.20;;;0.20;;
10839;SDS011;5473;42.706;23.328;2022-10-04T13:08:30;0.20;;;0.20;;
10839;SDS011;5473;42.706;23.328;2022-10-04T13:11:16;0.20;;;0.20;;
10839;SDS011;5473;42.706;23.328;2022-10-04T13:13:57;0.20;;;0.20;;
10839;SDS011;5473;42.706;23.328;2022-10-04T13:16:49;0.20;;;0.20;;
10839;SDS011;5473;42.706;23.328;2022-10-04T13:19:22;0.30;;;0.30;;
10839;SDS011;5473;42.706;23.328;2022-10-04T13:22:05;0.20;;;0.20;;
10839;SDS011;5473;42.706;23.328;2022-10-04T13:24:48;0.20;;;0.20;;
10839;SDS011;5473;42.706;23.328;2022-10-04T13:27:28;0.20;;;0.20;;
10839;SDS011;5473;42.706;23.328;2022-10-04T13:30:03;0.20;;;0.20;;
10839;SDS011;5473;42.706;23.328;2022-10-04T13:32:40;0.20;;;0.20;;
10839;SDS011;5473;42.706;23.328;2022-10-04T13:35:15;0.20;;;0.20;;
10839;SDS011;5473;42.706;23.328;2022-10-04T13:37:51;0.30;;;0.30;;
10839;SDS011;5473;42.706;23.328;2022-10-04T13:40:34;0.30;;;0.30;;
10839;SDS011;5473;42.706;23.328;2022-10-04T13:43:26;0.20;;;0.20;;
10839;SDS011;5473;42.706;23.328;2022-10-04T13:46:18;0.23;;;0.23;;
10839;SDS011;5473;42.706;23.328;2022-10-04T13:48:56;0.30;;;0.30;;
10839;SDS011;5473;42.706;23.328;2022-10-04T13:51:41;0.27;;;0.27;;
10839;SDS011;5473;42.706;23.328;2022-10-04T13:54:37;0.30;;;0.30;;
10839;SDS011;5473;42.706;23.328;2022-10-04T13:57:29;0.20;;;0.20;;
10839;SDS011;5473;42.706;23.328;2022-10-04T14:00:06;0.30;;;0.30;;
10839;SDS011;5473;42.706;23.328;2022-10-04T14:02:50;0.20;;;0.20;;
10839;SDS011;5473;42.706;23.328;2022-10-04T14:11:35;0.30;;;0.30;;
10839;SDS011;5473;42.706;23.328;2022-10-04T14:14:36;0.30;;;0.30;;
10839;SDS011;5473;42.706;23.328;2022-10-04T14:17:32;0.30;;;0.30;;
10839;SDS011;5473;42.706;23.328;2022-10-04T14:23:27;0.20;;;0.20;;
10839;SDS011;5473;42.706;23.328;2022-10-04T14:26:32;0.30;;;0.30;;
10839;SDS011;5473;42.706;23.328;2022-10-04T14:29:21;0.20;;;0.20;;
10839;SDS011;5473;42.706;23.328;2022-10-04T14:35:16;0.30;;;0.30;;
10839;SDS011;5473;42.706;23.328;2022-10-04T14:44:07;0.27;;;0.27;;
10839;SDS011;5473;42.706;23.328;2022-10-04T14:47:05;0.30;;;0.30;;
10839;SDS011;5473;42.706;23.328;2022-10-04T14:49:55;0.30;;;0.30;;
10839;SDS011;5473;42.706;23.328;2022-10-04T14:52:35;0.30;;;0.30;;
10839;SDS011;5473;42.706;23.328;2022-10-04T14:55:21;0.30;;;0.30;;
10839;SDS011;5473;42.706;23.328;2022-10-04T14:58:11;0.30;;;0.30;;
10839;SDS011;5473;42.706;23.328;2022-10-04T15:00:50;0.30;;;0.30;;
10839;SDS011;5473;42.706;23.328;2022-10-04T15:03:30;0.20;;;0.20;;
10839;SDS011;5473;42.706;23.328;2022-10-04T15:09:01;0.30;;;0.30;;
10839;SDS011;5473;42.706;23.328;2022-10-04T15:11:53;0.30;;;0.30;;
10839;SDS011;5473;42.706;23.328;2022-10-04T15:14:26;0.30;;;0.30;;
10839;SDS011;5473;42.706;23.328;2022-10-04T15:17:00;0.40;;;0.40;;
10839;SDS011;5473;42.706;23.328;2022-10-04T15:19:30;0.30;;;0.30;;
10839;SDS011;5473;42.706;23.328;2022-10-04T15:22:04;0.30;;;0.30;;
10839;SDS011;5473;42.706;23.328;2022-10-04T15:24:45;0.30;;;0.30;;
10839;SDS011;5473;42.706;23.328;2022-10-04T15:30:27;0.30;;;0.30;;
10839;SDS011;5473;42.706;23.328;2022-10-04T15:36:02;0.30;;;0.30;;
10839;SDS011;5473;42.706;23.328;2022-10-04T15:38:43;0.30;;;0.30;;
10839;SDS011;5473;42.706;23.328;2022-10-04T15:41:23;0.30;;;0.30;;
10839;SDS011;5473;42.706;23.328;2022-10-04T15:47:08;0.20;;;0.20;;
10839;SDS011;5473;42.706;23.328;2022-10-04T15:49:49;0.30;;;0.30;;
10839;SDS011;5473;42.706;23.328;2022-10-04T15:55:55;0.30;;;0.30;;
10839;SDS011;5473;42.706;23.328;2022-10-04T15:58:34;0.30;;;0.30;;
10839;SDS011;5473;42.706;23.328;2022-10-04T16:01:26;0.40;;;0.40;;
10839;SDS011;5473;42.706;23.328;2022-10-04T16:04:21;0.40;;;0.40;;
10839;SDS011;5473;42.706;23.328;2022-10-04T16:07:07;0.40;;;0.40;;
10839;SDS011;5473;42.706;23.328;2022-10-04T16:09:50;0.30;;;0.30;;
10839;SDS011;5473;42.706;23.328;2022-10-04T16:12:25;0.33;;;0.33;;
10839;SDS011;5473;42.706;23.328;2022-10-04T16:14:57;0.40;;;0.40;;
10839;SDS011;5473;42.706;23.328;2022-10-04T16:17:43;0.30;;;0.30;;
10839;SDS011;5473;42.706;23.328;2022-10-04T16:23:33;0.40;;;0.40;;
10839;SDS011;5473;42.706;23.328;2022-10-04T16:26:02;0.33;;;0.33;;
10839;SDS011;5473;42.706;23.328;2022-10-04T16:31:26;0.40;;;0.40;;
10839;SDS011;5473;42.706;23.328;2022-10-04T16:34:13;0.40;;;0.40;;
10839;SDS011;5473;42.706;23.328;2022-10-04T16:36:53;0.40;;;0.40;;
10839;SDS011;5473;42.706;23.328;2022-10-04T16:39:32;0.33;;;0.33;;
10839;SDS011;5473;42.706;23.328;2022-10-04T16:42:26;0.40;;;0.40;;
10839;SDS011;5473;42.706;23.328;2022-10-04T16:44:58;0.40;;;0.40;;
10839;SDS011;5473;42.706;23.328;2022-10-04T16:47:49;0.40;;;0.40;;
10839;SDS011;5473;42.706;23.328;2022-10-04T16:53:22;0.40;;;0.40;;
10839;SDS011;5473;42.706;23.328;2022-10-04T16:56:10;0.40;;;0.40;;
10839;SDS011;5473;42.706;23.328;2022-10-04T16:58:48;0.40;;;0.40;;
10839;SDS011;5473;42.706;23.328;2022-10-04T17:01:24;0.30;;;0.30;;
10839;SDS011;5473;42.706;23.328;2022-10-04T17:04:32;0.40;;;0.40;;
10839;SDS011;5473;42.706;23.328;2022-10-04T17:07:30;0.40;;;0.40;;
10839;SDS011;5473;42.706;23.328;2022-10-04T17:10:18;0.40;;;0.40;;
10839;SDS011;5473;42.706;23.328;2022-10-04T17:13:05;0.40;;;0.40;;
10839;SDS011;5473;42.706;23.328;2022-10-04T17:15:56;0.40;;;0.40;;
10839;SDS011;5473;42.706;23.328;2022-10-04T17:18:30;0.30;;;0.30;;
10839;SDS011;5473;42.706;23.328;2022-10-04T17:21:09;0.30;;;0.30;;
10839;SDS011;5473;42.706;23.328;2022-10-04T17:24:01;0.30;;;0.30;;
10839;SDS011;5473;42.706;23.328;2022-10-04T17:26:41;0.40;;;0.40;;
10839;SDS011;5473;42.706;23.328;2022-10-04T17:29:29;0.40;;;0.40;;
10839;SDS011;5473;42.706;23.328;2022-10-04T17:32:10;0.40;;;0.40;;
10839;SDS011;5473;42.706;23.328;2022-10-04T17:34:51;0.40;;;0.40;;
10839;SDS011;5473;42.706;23.328;2022-10-04T17:37:34;0.30;;;0.30;;
10839;SDS011;5473;42.706;23.328;2022-10-04T17:40:22;0.30;;;0.30;;
10839;SDS011;5473;42.706;23.328;2022-10-04T17:42:59;0.37;;;0.37;;
10839;SDS011;5473;42.706;23.328;2022-10-04T17:45:40;0.30;;;0.30;;
10839;SDS011;5473;42.706;23.328;2022-10-04T17:48:16;0.40;;;0.40;;
10839;SDS011;5473;42.706;23.328;2022-10-04T17:51:02;0.30;;;0.30;;
10839;SDS011;5473;42.706;23.328;2022-10-04T17:53:56;0.30;;;0.30;;
10839;SDS011;5473;42.706;23.328;2022-10-04T17:56:47;0.40;;;0.40;;
10839;SDS011;5473;42.706;23.328;2022-10-04T17:59:21;0.40;;;0.40;;
10839;SDS011;5473;42.706;23.328;2022-10-04T18:01:59;0.40;;;0.40;;
10839;SDS011;5473;42.706;23.328;2022-10-04T18:04:35;0.40;;;0.40;;
10839;SDS011;5473;42.706;23.328;2022-10-04T18:07:13;0.40;;;0.40;;
10839;SDS011;5473;42.706;23.328;2022-10-04T18:09:46;0.40;;;0.40;;
10839;SDS011;5473;42.706;23.328;2022-10-04T18:12:22;0.30;;;0.30;;
10839;SDS011;5473;42.706;23.328;2022-10-04T18:14:56;0.40;;;0.40;;